N617DM KHHF-KDUX
Flight info
| Callsign | N617DM |
|---|---|
| Flight time | 0h 45m |
| Altitude | 10000 |
| Route | HINOD V12 BROKE T420 ZETIB |
| Aircraft | PA24/L-BDFGLORY/S |
Departure
| Time | 2026-05-07 15:11 |
|---|---|
| Airport | Hemphill County Airport (KHHF) |
Arrival
| Time | 2026-05-07 15:56 |
|---|---|
| Airport | Moore County Airport (KDUX) |
| Time | Latitude | Longitude | Altitude | Speed | Heading |
|---|---|---|---|---|---|
| 2026-05-07 15:04 | 35.89565 | -100.40113 | 2384 ft | 0 kts | 103° |
| 2026-05-07 15:05 | 35.89564 | -100.40111 | 2384 ft | 1 kts | 85° |
| 2026-05-07 15:06 | 35.89575 | -100.40112 | 2384 ft | 4 kts | 277° |
| 2026-05-07 15:06 | 35.89575 | -100.40114 | 2384 ft | 0 kts | 244° |
| 2026-05-07 15:06 | 35.89575 | -100.40113 | 2384 ft | 0 kts | 244° |
| 2026-05-07 15:08 | 35.89573 | -100.40120 | 2384 ft | 9 kts | 243° |
| 2026-05-07 15:08 | 35.89536 | -100.40151 | 2384 ft | 3 kts | 111° |
| 2026-05-07 15:08 | 35.89569 | -100.40136 | 2384 ft | 8 kts | 358° |
| 2026-05-07 15:08 | 35.89665 | -100.40146 | 2385 ft | 21 kts | 31° |
| 2026-05-07 15:09 | 35.89755 | -100.40043 | 2383 ft | 14 kts | 45° |
| 2026-05-07 15:09 | 35.89795 | -100.39992 | 2382 ft | 10 kts | 46° |
| 2026-05-07 15:09 | 35.89837 | -100.39941 | 2382 ft | 3 kts | 45° |
| 2026-05-07 15:09 | 35.89854 | -100.39921 | 2382 ft | 12 kts | 40° |
| 2026-05-07 15:10 | 35.89921 | -100.39839 | 2380 ft | 5 kts | 44° |
| 2026-05-07 15:10 | 35.89923 | -100.39837 | 2380 ft | 4 kts | 44° |
| 2026-05-07 15:10 | 35.89980 | -100.39860 | 2379 ft | 12 kts | 260° |
| 2026-05-07 15:10 | 35.89849 | -100.40039 | 2383 ft | 56 kts | 222° |
| 2026-05-07 15:11 | 35.89479 | -100.40444 | 2478 ft | 78 kts | 224° |
| 2026-05-07 15:11 | 35.89054 | -100.40931 | 2629 ft | 90 kts | 224° |
| 2026-05-07 15:11 | 35.88590 | -100.41434 | 2931 ft | 85 kts | 221° |
| 2026-05-07 15:11 | 35.88089 | -100.41895 | 3131 ft | 93 kts | 217° |
| 2026-05-07 15:12 | 35.87503 | -100.42266 | 3428 ft | 97 kts | 209° |
| 2026-05-07 15:12 | 35.86895 | -100.42574 | 3756 ft | 94 kts | 218° |
| 2026-05-07 15:12 | 35.86455 | -100.43157 | 4002 ft | 93 kts | 250° |
| 2026-05-07 15:12 | 35.86364 | -100.43913 | 4301 ft | 85 kts | 267° |
| 2026-05-07 15:13 | 35.86391 | -100.44657 | 4494 ft | 91 kts | 281° |
| 2026-05-07 15:13 | 35.86505 | -100.45391 | 4783 ft | 84 kts | 279° |
| 2026-05-07 15:13 | 35.86629 | -100.46101 | 5000 ft | 85 kts | 279° |
| 2026-05-07 15:13 | 35.86736 | -100.46855 | 5147 ft | 90 kts | 280° |
| 2026-05-07 15:14 | 35.86864 | -100.47676 | 5280 ft | 96 kts | 283° |
| 2026-05-07 15:14 | 35.87050 | -100.48508 | 5324 ft | 109 kts | 284° |
| 2026-05-07 15:14 | 35.87330 | -100.49484 | 5126 ft | 128 kts | 289° |
| 2026-05-07 15:14 | 35.87657 | -100.50518 | 5034 ft | 134 kts | 290° |
| 2026-05-07 15:15 | 35.88026 | -100.51628 | 5026 ft | 130 kts | 291° |
| 2026-05-07 15:15 | 35.88391 | -100.52638 | 4975 ft | 134 kts | 292° |
| 2026-05-07 15:15 | 35.88758 | -100.53656 | 5037 ft | 130 kts | 289° |
| 2026-05-07 15:15 | 35.89003 | -100.54728 | 5023 ft | 131 kts | 282° |
| 2026-05-07 15:16 | 35.89212 | -100.55832 | 5018 ft | 133 kts | 283° |
| 2026-05-07 15:16 | 35.89413 | -100.56949 | 5016 ft | 133 kts | 282° |
| 2026-05-07 15:16 | 35.89629 | -100.58067 | 5014 ft | 133 kts | 281° |
| 2026-05-07 15:16 | 35.89836 | -100.59154 | 5011 ft | 131 kts | 281° |
| 2026-05-07 15:17 | 35.90072 | -100.60249 | 5010 ft | 132 kts | 282° |
| 2026-05-07 15:17 | 35.90186 | -100.61365 | 5013 ft | 132 kts | 259° |
| 2026-05-07 15:17 | 35.89655 | -100.62281 | 5014 ft | 139 kts | 217° |
| 2026-05-07 15:17 | 35.88759 | -100.62819 | 5011 ft | 146 kts | 212° |
| 2026-05-07 15:18 | 35.87825 | -100.63317 | 5012 ft | 145 kts | 211° |
| 2026-05-07 15:18 | 35.87065 | -100.64099 | 5017 ft | 143 kts | 238° |
| 2026-05-07 15:18 | 35.86485 | -100.65063 | 5010 ft | 137 kts | 238° |
| 2026-05-07 15:18 | 35.85907 | -100.65992 | 5007 ft | 135 kts | 238° |
| 2026-05-07 15:19 | 35.85324 | -100.66905 | 4985 ft | 136 kts | 237° |
| 2026-05-07 15:19 | 35.84763 | -100.67833 | 4985 ft | 135 kts | 238° |
| 2026-05-07 15:19 | 35.84200 | -100.68767 | 4987 ft | 136 kts | 237° |
| 2026-05-07 15:19 | 35.83609 | -100.69694 | 4990 ft | 138 kts | 237° |
| 2026-05-07 15:20 | 35.83107 | -100.70688 | 4996 ft | 137 kts | 253° |
| 2026-05-07 15:20 | 35.82829 | -100.71797 | 4998 ft | 136 kts | 255° |
| 2026-05-07 15:20 | 35.82551 | -100.72917 | 4998 ft | 136 kts | 255° |
| 2026-05-07 15:20 | 35.82280 | -100.74051 | 4999 ft | 136 kts | 255° |
| 2026-05-07 15:21 | 35.82055 | -100.75170 | 4998 ft | 135 kts | 262° |
| 2026-05-07 15:21 | 35.81908 | -100.76306 | 5002 ft | 134 kts | 261° |
| 2026-05-07 15:21 | 35.81765 | -100.77438 | 5002 ft | 134 kts | 262° |
| 2026-05-07 15:21 | 35.81625 | -100.78583 | 5006 ft | 136 kts | 262° |
| 2026-05-07 15:22 | 35.81477 | -100.79752 | 5010 ft | 137 kts | 262° |
| 2026-05-07 15:22 | 35.81330 | -100.80921 | 5012 ft | 138 kts | 262° |
| 2026-05-07 15:22 | 35.81185 | -100.82081 | 5016 ft | 136 kts | 262° |
| 2026-05-07 15:22 | 35.81035 | -100.83216 | 5018 ft | 136 kts | 262° |
| 2026-05-07 15:23 | 35.80906 | -100.84257 | 4134 ft | 127 kts | 258° |
| 2026-05-07 15:23 | 35.81123 | -100.83857 | 6141 ft | 129 kts | 36° |
| 2026-05-07 15:23 | 35.81055 | -100.84671 | 4520 ft | 147 kts | 241° |
| 2026-05-07 15:23 | 35.81519 | -100.85536 | 3809 ft | 149 kts | 326° |
| 2026-05-07 15:24 | 35.82192 | -100.86414 | 4071 ft | 140 kts | 335° |
| 2026-05-07 15:24 | 35.82998 | -100.87186 | 4029 ft | 145 kts | 288° |
| 2026-05-07 15:24 | 35.83144 | -100.88277 | 4444 ft | 120 kts | 272° |
| 2026-05-07 15:24 | 35.83200 | -100.89306 | 4568 ft | 122 kts | 271° |
| 2026-05-07 15:25 | 35.83239 | -100.90352 | 4661 ft | 124 kts | 272° |
| 2026-05-07 15:25 | 35.83296 | -100.91406 | 4808 ft | 120 kts | 274° |
| 2026-05-07 15:25 | 35.83333 | -100.92409 | 4974 ft | 118 kts | 269° |
| 2026-05-07 15:25 | 35.83284 | -100.93451 | 4993 ft | 125 kts | 264° |
| 2026-05-07 15:26 | 35.83124 | -100.94539 | 5043 ft | 125 kts | 254° |
| 2026-05-07 15:26 | 35.82869 | -100.95576 | 5090 ft | 129 kts | 257° |
| 2026-05-07 15:26 | 35.82628 | -100.96652 | 5046 ft | 137 kts | 256° |
| 2026-05-07 15:26 | 35.82371 | -100.97804 | 5132 ft | 134 kts | 256° |
| 2026-05-07 15:27 | 35.82112 | -100.98961 | 5051 ft | 143 kts | 256° |
| 2026-05-07 15:27 | 35.81852 | -101.00186 | 4964 ft | 147 kts | 256° |
| 2026-05-07 15:27 | 35.81574 | -101.01379 | 4970 ft | 144 kts | 256° |
| 2026-05-07 15:27 | 35.81305 | -101.02546 | 4971 ft | 143 kts | 256° |
| 2026-05-07 15:28 | 35.81026 | -101.03722 | 4978 ft | 144 kts | 256° |
| 2026-05-07 15:28 | 35.80760 | -101.04915 | 4979 ft | 145 kts | 256° |
| 2026-05-07 15:28 | 35.80490 | -101.06108 | 4978 ft | 143 kts | 256° |
| 2026-05-07 15:28 | 35.80219 | -101.07285 | 4979 ft | 142 kts | 256° |
| 2026-05-07 15:29 | 35.79996 | -101.08467 | 4981 ft | 141 kts | 262° |
| 2026-05-07 15:29 | 35.79835 | -101.09664 | 4977 ft | 141 kts | 262° |
| 2026-05-07 15:29 | 35.79692 | -101.10855 | 4979 ft | 140 kts | 268° |
| 2026-05-07 15:29 | 35.79838 | -101.12042 | 4982 ft | 142 kts | 288° |
| 2026-05-07 15:30 | 35.80162 | -101.13205 | 4979 ft | 144 kts | 285° |
| 2026-05-07 15:30 | 35.80457 | -101.14348 | 4975 ft | 144 kts | 285° |
| 2026-05-07 15:30 | 35.80769 | -101.15536 | 4974 ft | 144 kts | 286° |
| 2026-05-07 15:30 | 35.81080 | -101.16710 | 4963 ft | 144 kts | 285° |
| 2026-05-07 15:31 | 35.81383 | -101.17883 | 4968 ft | 143 kts | 285° |
| 2026-05-07 15:31 | 35.81688 | -101.19053 | 4966 ft | 143 kts | 284° |
| 2026-05-07 15:31 | 35.81989 | -101.20215 | 4963 ft | 142 kts | 285° |
| 2026-05-07 15:31 | 35.82300 | -101.21376 | 4961 ft | 143 kts | 285° |
| 2026-05-07 15:32 | 35.82582 | -101.22536 | 4964 ft | 142 kts | 285° |
| 2026-05-07 15:32 | 35.82894 | -101.23694 | 4950 ft | 141 kts | 285° |
| 2026-05-07 15:32 | 35.83192 | -101.24844 | 4952 ft | 140 kts | 285° |
| 2026-05-07 15:32 | 35.83402 | -101.25616 | 4992 ft | 140 kts | 285° |
| 2026-05-07 15:33 | 35.83701 | -101.26744 | 4994 ft | 140 kts | 285° |
| 2026-05-07 15:33 | 35.83998 | -101.27881 | 4997 ft | 138 kts | 285° |
| 2026-05-07 15:33 | 35.84291 | -101.29025 | 4991 ft | 139 kts | 284° |
| 2026-05-07 15:33 | 35.84566 | -101.30160 | 4989 ft | 139 kts | 282° |
| 2026-05-07 15:34 | 35.84809 | -101.31320 | 4995 ft | 139 kts | 281° |
| 2026-05-07 15:34 | 35.85050 | -101.32476 | 4993 ft | 139 kts | 281° |
| 2026-05-07 15:34 | 35.85294 | -101.33633 | 4994 ft | 140 kts | 281° |
| 2026-05-07 15:34 | 35.85480 | -101.34809 | 4995 ft | 139 kts | 274° |
| 2026-05-07 15:35 | 35.85540 | -101.35979 | 4994 ft | 139 kts | 271° |
| 2026-05-07 15:35 | 35.85604 | -101.37186 | 4994 ft | 141 kts | 271° |
| 2026-05-07 15:35 | 35.85678 | -101.38386 | 4994 ft | 140 kts | 272° |
| 2026-05-07 15:35 | 35.85746 | -101.39568 | 4993 ft | 141 kts | 271° |
| 2026-05-07 15:36 | 35.85816 | -101.40782 | 4996 ft | 140 kts | 272° |
| 2026-05-07 15:36 | 35.85880 | -101.41967 | 4992 ft | 139 kts | 271° |
| 2026-05-07 15:36 | 35.85929 | -101.43147 | 4992 ft | 136 kts | 271° |
| 2026-05-07 15:36 | 35.85975 | -101.44305 | 4937 ft | 136 kts | 272° |
| 2026-05-07 15:37 | 35.86035 | -101.45472 | 4936 ft | 138 kts | 272° |
| 2026-05-07 15:37 | 35.86077 | -101.46667 | 4938 ft | 138 kts | 271° |
| 2026-05-07 15:37 | 35.86133 | -101.47856 | 4942 ft | 139 kts | 271° |
| 2026-05-07 15:37 | 35.86211 | -101.49060 | 4929 ft | 141 kts | 274° |
| 2026-05-07 15:38 | 35.86308 | -101.50316 | 4672 ft | 150 kts | 273° |
| 2026-05-07 15:38 | 35.86406 | -101.51566 | 4680 ft | 143 kts | 272° |
| 2026-05-07 15:38 | 35.86481 | -101.52779 | 4684 ft | 139 kts | 271° |
| 2026-05-07 15:38 | 35.86533 | -101.53916 | 4629 ft | 123 kts | 269° |
| 2026-05-07 15:39 | 35.86543 | -101.54106 | 4930 ft | 123 kts | 66° |
| 2026-05-07 15:39 | 35.86796 | -101.54426 | 8063 ft | 99 kts | 328° |
| 2026-05-07 15:39 | 35.87305 | -101.55213 | 7828 ft | 137 kts | 298° |
| 2026-05-07 15:39 | 35.87546 | -101.56399 | 7501 ft | 154 kts | 277° |
| 2026-05-07 15:40 | 35.87540 | -101.57778 | 7232 ft | 162 kts | 268° |
| 2026-05-07 15:40 | 35.87415 | -101.59183 | 6906 ft | 171 kts | 263° |
| 2026-05-07 15:40 | 35.87253 | -101.60642 | 6482 ft | 168 kts | 268° |
| 2026-05-07 15:40 | 35.87106 | -101.62001 | 6068 ft | 156 kts | 260° |
| 2026-05-07 15:41 | 35.86959 | -101.63287 | 5756 ft | 146 kts | 272° |
| 2026-05-07 15:41 | 35.87009 | -101.64402 | 5834 ft | 115 kts | 273° |
| 2026-05-07 15:41 | 35.87077 | -101.65362 | 5671 ft | 119 kts | 269° |
| 2026-05-07 15:41 | 35.87037 | -101.66422 | 5554 ft | 122 kts | 266° |
| 2026-05-07 15:42 | 35.86994 | -101.67359 | 5808 ft | 96 kts | 266° |
| 2026-05-07 15:42 | 35.87019 | -101.68200 | 5767 ft | 103 kts | 276° |
| 2026-05-07 15:42 | 35.87114 | -101.69116 | 5838 ft | 108 kts | 276° |
| 2026-05-07 15:42 | 35.87236 | -101.70056 | 5775 ft | 119 kts | 278° |
| 2026-05-07 15:43 | 35.87515 | -101.71041 | 5801 ft | 119 kts | 292° |
| 2026-05-07 15:43 | 35.87897 | -101.71939 | 5876 ft | 117 kts | 294° |
| 2026-05-07 15:43 | 35.88282 | -101.72822 | 5928 ft | 118 kts | 296° |
| 2026-05-07 15:43 | 35.88657 | -101.73645 | 6112 ft | 106 kts | 296° |
| 2026-05-07 15:44 | 35.88943 | -101.74592 | 6000 ft | 126 kts | 281° |
| 2026-05-07 15:44 | 35.89169 | -101.75698 | 5841 ft | 141 kts | 283° |
| 2026-05-07 15:44 | 35.89466 | -101.76922 | 5696 ft | 150 kts | 283° |
| 2026-05-07 15:44 | 35.89755 | -101.78104 | 5731 ft | 143 kts | 284° |
| 2026-05-07 15:45 | 35.90037 | -101.79277 | 5637 ft | 135 kts | 283° |
| 2026-05-07 15:45 | 35.90290 | -101.80357 | 5564 ft | 131 kts | 284° |
| 2026-05-07 15:45 | 35.90506 | -101.81466 | 5385 ft | 134 kts | 281° |
| 2026-05-07 15:45 | 35.90693 | -101.82578 | 5296 ft | 130 kts | 278° |
| 2026-05-07 15:46 | 35.91054 | -101.84793 | 5028 ft | 130 kts | 279° |
| 2026-05-07 15:46 | 35.91169 | -101.85518 | 4972 ft | 128 kts | 277° |
| 2026-05-07 15:46 | 35.91298 | -101.86594 | 4869 ft | 127 kts | 275° |
| 2026-05-07 15:47 | 35.91373 | -101.87677 | 4756 ft | 127 kts | 272° |
| 2026-05-07 15:47 | 35.91428 | -101.88742 | 4734 ft | 120 kts | 270° |
| 2026-05-07 15:47 | 35.91374 | -101.89786 | 4618 ft | 126 kts | 268° |
| 2026-05-07 15:47 | 35.91424 | -101.90898 | 4524 ft | 126 kts | 272° |
| 2026-05-07 15:48 | 35.91525 | -101.91944 | 4507 ft | 122 kts | 276° |
| 2026-05-07 15:48 | 35.91637 | -101.92958 | 4563 ft | 114 kts | 274° |
| 2026-05-07 15:48 | 35.91691 | -101.93905 | 4642 ft | 110 kts | 271° |
| 2026-05-07 15:48 | 35.91738 | -101.94835 | 4626 ft | 109 kts | 274° |
| 2026-05-07 15:49 | 35.91741 | -101.95741 | 4676 ft | 104 kts | 269° |
| 2026-05-07 15:49 | 35.91742 | -101.96648 | 4690 ft | 105 kts | 268° |
| 2026-05-07 15:49 | 35.91424 | -101.97457 | 4509 ft | 123 kts | 218° |
| 2026-05-07 15:49 | 35.90581 | -101.97657 | 4511 ft | 129 kts | 183° |
| 2026-05-07 15:50 | 35.89659 | -101.97564 | 4513 ft | 127 kts | 186° |
| 2026-05-07 15:50 | 35.88821 | -101.97568 | 4632 ft | 120 kts | 195° |
| 2026-05-07 15:50 | 35.88045 | -101.97826 | 4684 ft | 114 kts | 206° |
| 2026-05-07 15:50 | 35.87295 | -101.98254 | 4723 ft | 131 kts | 209° |
| 2026-05-07 15:51 | 35.87185 | -101.99110 | 4841 ft | 116 kts | 324° |
| 2026-05-07 15:51 | 35.88013 | -101.99168 | 4885 ft | 122 kts | 4° |
| 2026-05-07 15:51 | 35.88798 | -101.98889 | 5039 ft | 119 kts | 10° |
| 2026-05-07 15:51 | 35.89618 | -101.98594 | 5055 ft | 122 kts | 4° |
| 2026-05-07 15:52 | 35.90411 | -101.98320 | 5152 ft | 117 kts | 2° |
| 2026-05-07 15:52 | 35.91206 | -101.98208 | 5214 ft | 115 kts | 4° |
| 2026-05-07 15:52 | 35.91982 | -101.97962 | 5333 ft | 111 kts | 7° |
| 2026-05-07 15:52 | 35.92655 | -101.97423 | 5237 ft | 128 kts | 30° |
| 2026-05-07 15:53 | 35.93467 | -101.97135 | 5355 ft | 118 kts | 341° |
| 2026-05-07 15:53 | 35.93984 | -101.97758 | 5500 ft | 97 kts | 273° |
| 2026-05-07 15:53 | 35.93607 | -101.98375 | 5373 ft | 109 kts | 201° |
| 2026-05-07 15:53 | 35.92808 | -101.98339 | 5144 ft | 120 kts | 181° |
| 2026-05-07 15:54 | 35.91991 | -101.98355 | 5010 ft | 120 kts | 191° |
| 2026-05-07 15:54 | 35.91151 | -101.98527 | 4871 ft | 119 kts | 198° |
| 2026-05-07 15:54 | 35.90386 | -101.98780 | 4830 ft | 109 kts | 208° |
| 2026-05-07 15:54 | 35.89707 | -101.99090 | 4792 ft | 99 kts | 212° |
| 2026-05-07 15:55 | 35.89082 | -101.99411 | 4689 ft | 98 kts | 212° |
| 2026-05-07 15:55 | 35.88455 | -101.99749 | 4463 ft | 92 kts | 210° |
| 2026-05-07 15:55 | 35.87877 | -102.00040 | 4164 ft | 92 kts | 216° |
| 2026-05-07 15:55 | 35.87372 | -102.00429 | 3972 ft | 77 kts | 220° |
| 2026-05-07 15:56 | 35.86921 | -102.00700 | 3851 ft | 68 kts | 216° |
| 2026-05-07 15:56 | 35.86488 | -102.00924 | 3747 ft | 66 kts | 214° |
| 2026-05-07 15:56 | 35.86089 | -102.01127 | 3718 ft | 51 kts | 217° |
| 2026-05-07 15:56 | 35.85904 | -102.01244 | 3708 ft | 0 kts | 225° |
| 2026-05-07 15:57 | 35.85902 | -102.01249 | 3707 ft | 6 kts | 266° |
| 2026-05-07 15:57 | 35.85967 | -102.01274 | 3719 ft | 11 kts | 358° |
| 2026-05-07 15:57 | 35.86030 | -102.01256 | 3715 ft | 17 kts | 30° |
| 2026-05-07 15:57 | 35.86147 | -102.01189 | 3714 ft | 22 kts | 22° |
| 2026-05-07 15:58 | 35.86295 | -102.01113 | 3715 ft | 17 kts | 25° |
| 2026-05-07 15:58 | 35.86340 | -102.01114 | 3718 ft | 10 kts | 232° |
| 2026-05-07 15:58 | 35.86339 | -102.01122 | 3717 ft | 0 kts | 300° |